LIPH/TSF METAR and TAF weather

Enter ICAO airport designator
Station Type Date Time Source
LIPH METAR 2019/04/25 07:50 UTC NOAA

LIPH 250750Z 05004KT 010V090 9999 SCT020 18/14 Q1019


Station Type Date Time Source
LIPH Decoded METAR 2019/04/25 07:50 UTC NOAA

Treviso / S. Angelo, Italy (LIPH) 45-39N 012-11E 23M
Apr 25, 2019 - 03:50 AM EDT / 2019.04.25 0750 UTC
Wind: from the NE (050 degrees) at 5 MPH (4 KT) (direction variable):0
Visibility: greater than 7 mile(s):0
Sky conditions: partly cloudy
Temperature: 64 F (18 C)
Dew Point: 57 F (14 C)
Relative Humidity: 77%
Pressure (altimeter): 30.09 in. Hg (1019 hPa)
ob: LIPH 250750Z 05004KT 010V090 9999 SCT020 18/14 Q1019
cycle: 8

Station Type Date Time Source
LIPH TAF 2019/04/25 06:21 UTC NOAA

TAF LIPH 250500Z 2506/2606 VRB05KT 3000 BR BKN003
BECMG 2506/2509 7000 SCT020 PROB30
TEMPO 2515/2520 TSRA
TEMPO 2522/2606 3000 BR

Example: see airport list